createdAt,value
2023-07-25T00:00:43.508Z,63.16
2023-07-25T00:03:15.984Z,63.62
2023-07-25T00:05:48.467Z,63.24
2023-07-25T00:08:21.016Z,62.99
2023-07-25T00:10:53.607Z,63.36
2023-07-25T00:13:26.702Z,63.48
2023-07-25T00:15:59.227Z,63.37
2023-07-25T00:18:31.792Z,63.74
2023-07-25T00:21:04.413Z,63.84
2023-07-25T00:23:36.997Z,64.18
2023-07-25T00:26:09.491Z,64.17
2023-07-25T00:28:42.005Z,63.97
2023-07-25T00:31:14.523Z,63.77
2023-07-25T00:33:47.080Z,63.49
2023-07-25T00:36:19.614Z,63.38
2023-07-25T00:38:52.059Z,63.52
2023-07-25T00:41:24.593Z,63.55
2023-07-25T00:43:57.104Z,63.29
2023-07-25T00:46:29.893Z,63.60
2023-07-25T00:49:02.756Z,63.75
2023-07-25T00:51:35.593Z,63.76
2023-07-25T00:54:08.142Z,63.77
2023-07-25T00:56:40.692Z,64.13
2023-07-25T00:59:13.243Z,64.40
2023-07-25T01:01:45.948Z,64.53
2023-07-25T01:04:18.496Z,64.76
2023-07-25T01:06:53.282Z,65.03
2023-07-25T01:09:39.756Z,64.95
2023-07-25T01:12:13.134Z,65.06
2023-07-25T01:14:45.707Z,65.06
2023-07-25T01:17:22.933Z,65.26
2023-07-25T01:19:55.932Z,65.70
2023-07-25T01:22:32.023Z,65.73
2023-07-25T01:25:04.929Z,65.67
2023-07-25T01:27:37.439Z,65.62
2023-07-25T01:30:10.252Z,65.67
2023-07-25T01:32:42.920Z,65.77
2023-07-25T01:35:15.564Z,65.78
2023-07-25T01:37:48.118Z,65.77
2023-07-25T01:40:20.676Z,65.50
2023-07-25T01:42:53.191Z,65.42
2023-07-25T01:45:25.761Z,65.31
2023-07-25T01:48:00.453Z,65.39
2023-07-25T01:50:33.251Z,65.19
2023-07-25T01:53:05.828Z,65.61
2023-07-25T01:55:38.546Z,65.37
2023-07-25T01:58:11.054Z,65.30
2023-07-25T02:00:43.569Z,65.22
2023-07-25T02:03:19.293Z,65.47
2023-07-25T02:05:51.971Z,65.50
2023-07-25T02:08:24.444Z,65.51
2023-07-25T02:10:57.081Z,65.53
2023-07-25T02:13:29.716Z,65.53
2023-07-25T02:16:02.320Z,65.48
2023-07-25T02:18:34.857Z,65.72
2023-07-25T02:21:07.479Z,65.70
2023-07-25T02:23:40.054Z,65.73
2023-07-25T02:26:12.570Z,65.84
2023-07-25T02:28:45.074Z,65.70
2023-07-25T02:31:17.828Z,65.95
2023-07-25T02:33:50.595Z,65.98
2023-07-25T02:36:23.127Z,66.03
2023-07-25T02:38:55.670Z,65.92
2023-07-25T02:41:28.251Z,66.14
2023-07-25T02:44:00.776Z,66.21
2023-07-25T02:46:33.494Z,66.41
2023-07-25T02:49:06.030Z,66.50
2023-07-25T02:51:38.559Z,66.43
2023-07-25T02:54:11.089Z,66.65
2023-07-25T02:56:43.570Z,66.42
2023-07-25T02:59:16.092Z,66.44
2023-07-25T03:01:48.825Z,66.70
2023-07-25T03:04:21.333Z,66.73
2023-07-25T03:06:53.868Z,66.63
2023-07-25T03:09:26.363Z,66.74
2023-07-25T03:11:58.880Z,66.56
2023-07-25T03:14:31.387Z,66.54
2023-07-25T03:17:04.014Z,66.65
2023-07-25T03:19:36.483Z,66.03
2023-07-25T03:22:08.922Z,65.67
2023-07-25T03:24:41.444Z,65.90
2023-07-25T03:27:14.083Z,65.90
2023-07-25T03:29:46.717Z,65.62
2023-07-25T03:32:19.264Z,65.23
2023-07-25T03:34:51.777Z,65.06
2023-07-25T03:37:24.277Z,64.84
2023-07-25T03:39:56.788Z,64.75
2023-07-25T03:42:29.402Z,64.47
2023-07-25T03:45:01.918Z,64.28
2023-07-25T03:47:34.516Z,64.19
2023-07-25T03:50:07.703Z,64.16
2023-07-25T03:52:40.812Z,63.91
2023-07-25T03:55:13.468Z,63.76
2023-07-25T03:57:45.943Z,63.62
2023-07-25T04:00:18.527Z,63.54
2023-07-25T04:03:00.784Z,63.85
2023-07-25T04:05:37.671Z,63.75
2023-07-25T04:08:10.178Z,63.76
2023-07-25T04:10:42.655Z,63.80
2023-07-25T04:13:15.052Z,64.00
2023-07-25T04:15:47.766Z,63.92
2023-07-25T04:18:20.227Z,63.96
2023-07-25T04:20:52.711Z,64.10
2023-07-25T04:23:27.221Z,64.16
2023-07-25T04:25:59.764Z,64.57
2023-07-25T04:28:32.877Z,64.87
2023-07-25T04:31:05.568Z,64.53
2023-07-25T04:33:38.185Z,64.44
2023-07-25T04:36:10.794Z,64.31
2023-07-25T04:38:43.391Z,64.01
2023-07-25T04:41:15.859Z,63.79
2023-07-25T04:43:48.399Z,63.93
2023-07-25T04:46:20.977Z,63.50
2023-07-25T04:48:53.550Z,64.11
2023-07-25T04:51:25.980Z,64.25
2023-07-25T04:53:58.433Z,63.47
2023-07-25T04:56:30.873Z,62.89
2023-07-25T04:59:03.319Z,62.58
2023-07-25T05:01:36.211Z,62.14
2023-07-25T05:04:08.772Z,61.15
2023-07-25T05:06:41.377Z,61.13
2023-07-25T05:09:14.004Z,60.68
2023-07-25T05:11:48.465Z,60.55
2023-07-25T05:14:20.985Z,60.57
2023-07-25T05:16:53.642Z,60.32
2023-07-25T05:19:26.253Z,60.27
2023-07-25T05:21:58.849Z,59.82
2023-07-25T05:24:32.423Z,59.37
2023-07-25T05:27:05.263Z,58.75
2023-07-25T05:29:37.725Z,58.54
2023-07-25T05:32:10.312Z,58.36
2023-07-25T05:34:42.894Z,58.61
2023-07-25T05:37:19.396Z,58.01
2023-07-25T05:39:52.522Z,57.59
2023-07-25T05:42:25.080Z,57.65
2023-07-25T05:44:58.874Z,57.76
2023-07-25T05:47:31.456Z,57.79
2023-07-25T05:50:04.224Z,57.21
2023-07-25T05:52:36.821Z,57.26
2023-07-25T05:55:09.449Z,57.14
2023-07-25T05:57:42.095Z,56.37
2023-07-25T06:00:14.859Z,56.55
2023-07-25T06:02:47.446Z,56.37
2023-07-25T06:05:20.119Z,55.71
2023-07-25T06:07:52.637Z,55.22
2023-07-25T06:10:25.203Z,55.45
2023-07-25T06:12:58.249Z,56.24
2023-07-25T06:15:31.223Z,56.37
2023-07-25T06:18:05.322Z,57.20
2023-07-25T06:20:37.858Z,56.14
2023-07-25T06:23:10.395Z,55.78
2023-07-25T06:25:42.960Z,56.78
2023-07-25T06:28:16.428Z,56.06
2023-07-25T06:30:49.634Z,56.75
2023-07-25T06:33:22.136Z,55.34
2023-07-25T06:35:54.628Z,55.74
2023-07-25T06:38:27.095Z,56.32
2023-07-25T06:40:59.733Z,56.57
2023-07-25T06:43:32.238Z,55.95
2023-07-25T06:46:04.745Z,55.25
2023-07-25T06:48:37.221Z,55.41
2023-07-25T06:51:09.785Z,56.07
2023-07-25T06:53:42.363Z,55.66
2023-07-25T06:56:14.988Z,55.03
2023-07-25T06:58:48.463Z,54.67
2023-07-25T07:01:21.918Z,53.89
2023-07-25T07:03:56.124Z,53.24
2023-07-25T07:06:28.634Z,54.25
2023-07-25T07:09:01.185Z,54.20
2023-07-25T07:11:33.976Z,53.15
2023-07-25T07:14:07.047Z,52.62
2023-07-25T07:16:39.614Z,52.47
2023-07-25T07:19:12.187Z,51.99
2023-07-25T07:21:44.754Z,50.91
2023-07-25T07:24:17.257Z,50.13
2023-07-25T07:26:49.803Z,48.75
2023-07-25T07:29:22.480Z,49.51
2023-07-25T07:31:55.043Z,50.30
2023-07-25T07:34:27.569Z,49.55
2023-07-25T07:37:00.239Z,49.75
2023-07-25T07:39:32.756Z,49.86
2023-07-25T07:42:05.405Z,49.26
2023-07-25T07:44:37.988Z,48.73
2023-07-25T07:47:10.477Z,49.32
2023-07-25T07:49:42.979Z,48.52
2023-07-25T07:52:22.920Z,48.80
2023-07-25T07:55:01.907Z,48.78
2023-07-25T07:57:38.811Z,49.38
2023-07-25T08:00:14.820Z,49.91
2023-07-25T08:02:47.391Z,49.38
2023-07-25T08:05:20.019Z,48.58
2023-07-25T08:07:53.336Z,48.38
2023-07-25T08:10:26.854Z,48.41
2023-07-25T08:12:59.363Z,47.72
2023-07-25T08:15:31.898Z,47.07
2023-07-25T08:18:04.519Z,48.09
2023-07-25T08:20:37.083Z,46.69
2023-07-25T08:23:09.612Z,47.01
2023-07-25T08:25:42.255Z,46.08
2023-07-25T08:28:14.744Z,45.94
2023-07-25T08:30:47.303Z,46.40
2023-07-25T08:33:20.975Z,45.67
2023-07-25T08:35:54.983Z,46.53
2023-07-25T08:38:28.214Z,46.99
2023-07-25T08:41:08.512Z,46.16
2023-07-25T08:43:41.596Z,45.63
2023-07-25T08:46:18.975Z,46.25
2023-07-25T08:49:00.605Z,45.33
2023-07-25T08:51:36.034Z,45.87
2023-07-25T08:54:16.310Z,45.38
2023-07-25T08:56:49.121Z,44.93
2023-07-25T08:59:23.111Z,45.04
2023-07-25T09:01:56.381Z,44.35
2023-07-25T09:04:29.443Z,44.01
2023-07-25T09:07:02.064Z,44.35
2023-07-25T09:09:34.609Z,43.77
2023-07-25T09:12:08.666Z,42.51
2023-07-25T09:14:43.281Z,41.81
2023-07-25T09:17:15.901Z,41.85
2023-07-25T09:19:48.710Z,42.92
2023-07-25T09:22:32.331Z,41.69
2023-07-25T09:25:09.245Z,42.81
2023-07-25T09:27:46.040Z,41.57
2023-07-25T09:30:18.665Z,41.47
2023-07-25T09:32:51.521Z,40.68
2023-07-25T09:35:24.614Z,40.28
2023-07-25T09:37:57.265Z,40.34
2023-07-25T09:40:38.144Z,39.62
2023-07-25T09:43:22.108Z,40.72
2023-07-25T09:45:56.524Z,40.72
2023-07-25T09:48:29.079Z,40.66
2023-07-25T09:51:03.789Z,41.60
2023-07-25T09:53:36.333Z,41.89
2023-07-25T09:56:09.447Z,42.42
2023-07-25T09:59:00.566Z,41.75
2023-07-25T10:01:37.269Z,40.86
2023-07-25T10:04:10.581Z,39.97
2023-07-25T10:06:43.533Z,40.38
2023-07-25T10:09:17.317Z,40.32
2023-07-25T10:11:51.715Z,40.22
2023-07-25T10:14:24.403Z,39.91
2023-07-25T10:16:58.657Z,40.14
2023-07-25T10:19:49.601Z,40.17
2023-07-25T10:22:40.477Z,41.00
2023-07-25T10:25:19.907Z,39.82
2023-07-25T10:27:55.847Z,40.24
2023-07-25T10:30:33.456Z,39.49
2023-07-25T10:33:08.414Z,39.74
2023-07-25T10:35:41.937Z,39.85
2023-07-25T10:38:15.645Z,39.63
2023-07-25T10:40:58.679Z,39.25
2023-07-25T10:43:53.675Z,38.44
2023-07-25T10:46:31.427Z,38.23
2023-07-25T10:49:13.840Z,38.37
2023-07-25T10:51:56.226Z,38.35
2023-07-25T10:54:30.264Z,39.63
2023-07-25T10:57:18.521Z,39.80
2023-07-25T11:00:01.393Z,40.47
2023-07-25T11:02:35.149Z,39.50
2023-07-25T11:05:13.825Z,38.12
2023-07-25T11:07:46.232Z,37.99
2023-07-25T11:10:37.591Z,38.88
2023-07-25T11:13:10.435Z,38.53
2023-07-25T11:15:47.358Z,39.50
2023-07-25T11:18:20.447Z,39.50
2023-07-25T11:21:00.994Z,39.57
2023-07-25T11:23:34.206Z,39.41
2023-07-25T11:26:10.101Z,39.55
2023-07-25T11:28:42.710Z,39.34
2023-07-25T11:31:22.527Z,41.03
2023-07-25T11:33:55.165Z,39.41
2023-07-25T11:36:27.711Z,38.99
2023-07-25T11:39:02.304Z,38.54
2023-07-25T11:41:35.118Z,39.57
2023-07-25T11:44:13.435Z,37.37
2023-07-25T11:46:50.233Z,36.79
2023-07-25T11:49:36.433Z,36.81
2023-07-25T11:52:13.443Z,37.19
2023-07-25T11:54:46.417Z,36.62
2023-07-25T11:57:19.073Z,36.24
2023-07-25T11:59:58.029Z,35.82
2023-07-25T12:02:37.783Z,36.62
2023-07-25T12:05:25.503Z,36.24
2023-07-25T12:08:04.814Z,35.58
2023-07-25T12:10:38.068Z,36.39
2023-07-25T12:13:12.118Z,35.93
2023-07-25T12:15:52.946Z,36.53
2023-07-25T12:18:26.655Z,37.34
2023-07-25T12:21:00.748Z,36.96
2023-07-25T12:23:39.177Z,37.58
2023-07-25T12:26:14.714Z,37.00
2023-07-25T12:28:49.979Z,36.62
2023-07-25T12:31:23.114Z,35.60
2023-07-25T12:33:55.697Z,35.99
2023-07-25T12:36:28.221Z,35.26
2023-07-25T12:39:00.775Z,36.09
2023-07-25T12:41:33.236Z,35.43
2023-07-25T12:44:06.304Z,35.32
2023-07-25T12:46:40.510Z,34.70
2023-07-25T12:49:13.564Z,33.82
2023-07-25T12:51:46.056Z,33.56
2023-07-25T12:54:18.558Z,33.74
2023-07-25T12:56:51.124Z,33.56
2023-07-25T12:59:23.584Z,33.15
2023-07-25T13:01:56.633Z,33.29
2023-07-25T13:04:29.483Z,32.95
2023-07-25T13:07:02.058Z,32.97
2023-07-25T13:09:34.543Z,32.74
2023-07-25T13:12:07.274Z,32.27
2023-07-25T13:14:39.795Z,33.22
2023-07-25T13:17:12.260Z,33.42
2023-07-25T13:19:44.806Z,34.28
2023-07-25T13:22:17.324Z,33.69
2023-07-25T13:24:49.883Z,34.09
2023-07-25T13:27:26.878Z,34.09
2023-07-25T13:29:59.383Z,33.19
2023-07-25T13:32:32.058Z,33.09
2023-07-25T13:35:05.145Z,34.28
2023-07-25T13:37:37.649Z,33.76
2023-07-25T13:40:10.394Z,34.05
2023-07-25T13:42:42.873Z,34.80
2023-07-25T13:45:17.684Z,34.01
2023-07-25T13:47:50.480Z,34.66
2023-07-25T13:50:23.374Z,35.08
2023-07-25T13:52:55.891Z,34.53
2023-07-25T13:55:28.425Z,34.91
2023-07-25T13:58:09.939Z,34.92
2023-07-25T14:00:42.771Z,34.87
2023-07-25T14:03:15.265Z,35.06
2023-07-25T14:05:47.763Z,34.58
2023-07-25T14:08:20.284Z,34.76
2023-07-25T14:10:52.790Z,35.03
2023-07-25T14:13:26.653Z,34.30
2023-07-25T14:16:00.452Z,34.17
2023-07-25T14:18:32.993Z,34.98
2023-07-25T14:21:06.240Z,34.11
2023-07-25T14:23:39.591Z,34.51
2023-07-25T14:26:12.198Z,34.66
2023-07-25T14:28:47.546Z,35.35
2023-07-25T14:31:19.943Z,35.09
2023-07-25T14:33:52.783Z,34.39
2023-07-25T14:36:25.291Z,34.69
2023-07-25T14:38:57.785Z,34.37
2023-07-25T14:41:30.399Z,34.83
2023-07-25T14:44:02.995Z,34.08
2023-07-25T14:46:36.010Z,34.60
2023-07-25T14:49:08.686Z,34.08
2023-07-25T14:51:41.298Z,34.63
2023-07-25T14:54:13.766Z,34.23
2023-07-25T14:56:46.318Z,34.40
2023-07-25T14:59:19.158Z,33.84
2023-07-25T15:01:51.898Z,33.62
2023-07-25T15:04:24.448Z,33.36
2023-07-25T15:06:56.968Z,33.53
2023-07-25T15:09:29.553Z,35.22
2023-07-25T15:12:02.329Z,34.77
2023-07-25T15:14:34.954Z,34.57
2023-07-25T15:17:10.906Z,34.77
2023-07-25T15:19:43.533Z,34.36
2023-07-25T15:22:16.237Z,34.97
2023-07-25T15:24:48.759Z,35.05
2023-07-25T15:27:21.464Z,34.46
2023-07-25T15:29:54.721Z,33.24
2023-07-25T15:32:27.301Z,34.16
2023-07-25T15:34:59.782Z,33.50
2023-07-25T15:37:32.281Z,34.03
2023-07-25T15:40:05.676Z,34.97
2023-07-25T15:42:38.258Z,34.44
2023-07-25T15:45:10.719Z,35.40
2023-07-25T15:47:43.317Z,34.76
2023-07-25T15:50:15.863Z,34.54
2023-07-25T15:52:48.452Z,34.26
2023-07-25T15:55:22.472Z,34.31
2023-07-25T15:57:56.407Z,34.45
2023-07-25T16:00:28.909Z,33.93
2023-07-25T16:03:01.490Z,34.78
2023-07-25T16:05:34.029Z,34.76
2023-07-25T16:08:06.526Z,33.75
2023-07-25T16:10:39.048Z,34.05
2023-07-25T16:13:11.547Z,34.65
2023-07-25T16:15:47.333Z,34.35
2023-07-25T16:18:20.040Z,33.93
2023-07-25T16:20:52.577Z,34.26
2023-07-25T16:23:25.261Z,33.88
2023-07-25T16:25:57.735Z,32.85
2023-07-25T16:28:30.268Z,32.70
2023-07-25T16:31:30.102Z,32.89
2023-07-25T16:33:55.410Z,33.14
2023-07-25T16:36:28.012Z,33.09
2023-07-25T16:39:00.631Z,32.51
2023-07-25T16:41:33.449Z,31.93
2023-07-25T16:44:06.181Z,32.28
2023-07-25T16:46:38.708Z,32.28
2023-07-25T16:49:11.312Z,32.85
2023-07-25T16:51:43.932Z,33.07
2023-07-25T16:54:17.982Z,32.28
2023-07-25T16:56:50.942Z,32.17
2023-07-25T16:59:23.367Z,33.28
2023-07-25T17:01:55.958Z,33.05
2023-07-25T17:04:28.495Z,33.04
2023-07-25T17:07:01.083Z,33.01
2023-07-25T17:09:33.569Z,33.22
2023-07-25T17:12:06.335Z,33.29
2023-07-25T17:14:38.783Z,32.83
2023-07-25T17:17:13.725Z,32.54
2023-07-25T17:19:46.355Z,33.14
2023-07-25T17:22:18.980Z,33.76
2023-07-25T17:24:51.514Z,33.35
2023-07-25T17:27:24.686Z,32.74
2023-07-25T17:29:57.161Z,33.41
2023-07-25T17:32:29.752Z,33.24
2023-07-25T17:35:02.487Z,33.15
2023-07-25T17:37:35.751Z,32.79
2023-07-25T17:40:09.614Z,32.31
2023-07-25T17:42:42.510Z,33.04
2023-07-25T17:45:15.149Z,32.52
2023-07-25T17:47:47.770Z,32.64
2023-07-25T17:50:20.490Z,32.69
2023-07-25T17:52:53.435Z,32.40
2023-07-25T17:55:25.963Z,32.65
2023-07-25T17:57:58.471Z,33.02
2023-07-25T18:00:31.000Z,33.18
2023-07-25T18:03:03.845Z,33.06
2023-07-25T18:05:36.561Z,33.62
2023-07-25T18:08:09.260Z,33.46
2023-07-25T18:10:41.918Z,33.78
2023-07-25T18:13:14.505Z,33.38
2023-07-25T18:15:47.255Z,33.35
2023-07-25T18:18:20.028Z,32.88
2023-07-25T18:20:52.647Z,33.76
2023-07-25T18:23:25.535Z,33.70
2023-07-25T18:26:02.088Z,34.22
2023-07-25T18:28:36.986Z,34.99
2023-07-25T18:31:09.653Z,35.24
2023-07-25T18:33:42.241Z,35.09
2023-07-25T18:36:14.714Z,36.79
2023-07-25T18:38:47.171Z,37.17
2023-07-25T18:41:19.684Z,37.24
2023-07-25T18:43:52.204Z,37.75
2023-07-25T18:46:24.700Z,38.33
2023-07-25T18:48:57.214Z,38.75
2023-07-25T18:51:29.694Z,39.04
2023-07-25T18:54:02.210Z,39.87
2023-07-25T18:56:34.801Z,39.87
2023-07-25T18:59:07.360Z,40.66
2023-07-25T19:01:39.976Z,40.80
2023-07-25T19:04:12.550Z,41.45
2023-07-25T19:06:45.028Z,42.23
2023-07-25T19:09:18.391Z,42.21
2023-07-25T19:11:51.148Z,42.35
2023-07-25T19:14:23.708Z,42.75
2023-07-25T19:16:56.205Z,42.62
2023-07-25T19:19:28.650Z,43.12
2023-07-25T19:22:04.232Z,43.00
2023-07-25T19:24:36.721Z,43.11
2023-07-25T19:27:09.320Z,43.62
2023-07-25T19:29:41.794Z,43.96
2023-07-25T19:32:14.327Z,44.09
2023-07-25T19:34:47.262Z,44.48
2023-07-25T19:37:19.975Z,44.69
2023-07-25T19:39:52.559Z,44.79
2023-07-25T19:42:25.010Z,44.83
2023-07-25T19:44:57.540Z,44.96
2023-07-25T19:47:30.203Z,45.07
2023-07-25T19:50:03.053Z,45.33
2023-07-25T19:52:35.555Z,45.79
2023-07-25T19:55:08.527Z,45.76
2023-07-25T19:57:41.089Z,45.84
2023-07-25T20:00:14.325Z,45.84
2023-07-25T20:02:46.993Z,45.87
2023-07-25T20:05:19.626Z,45.95
2023-07-25T20:07:52.224Z,46.13
2023-07-25T20:10:24.729Z,46.38
2023-07-25T20:12:57.309Z,46.63
2023-07-25T20:15:29.926Z,46.82
2023-07-25T20:18:02.476Z,47.20
2023-07-25T20:20:35.027Z,47.38
2023-07-25T20:23:08.653Z,47.38
2023-07-25T20:25:41.136Z,48.25
2023-07-25T20:28:13.668Z,48.38
2023-07-25T20:30:46.247Z,47.98
2023-07-25T20:33:18.914Z,48.39
2023-07-25T20:35:52.074Z,48.83
2023-07-25T20:38:24.543Z,48.62
2023-07-25T20:40:57.108Z,48.58
2023-07-25T20:43:29.733Z,47.86
2023-07-25T20:46:04.113Z,48.21
2023-07-25T20:48:36.661Z,48.27
2023-07-25T20:51:09.213Z,47.90
2023-07-25T20:53:41.803Z,48.23
2023-07-25T20:56:15.372Z,48.77
2023-07-25T20:58:47.979Z,49.16
2023-07-25T21:01:20.512Z,49.30
2023-07-25T21:03:53.177Z,49.44
2023-07-25T21:06:26.695Z,48.99
2023-07-25T21:08:59.255Z,48.99
2023-07-25T21:11:31.792Z,49.14
2023-07-25T21:14:04.290Z,49.05
2023-07-25T21:16:36.778Z,48.86
2023-07-25T21:19:09.296Z,49.17
2023-07-25T21:21:42.013Z,49.23
2023-07-25T21:24:15.854Z,49.13
2023-07-25T21:26:48.430Z,48.87
2023-07-25T21:29:20.917Z,48.57
2023-07-25T21:31:53.477Z,48.72
2023-07-25T21:34:25.984Z,49.10
2023-07-25T21:36:58.451Z,49.66
2023-07-25T21:39:30.935Z,49.50
2023-07-25T21:42:03.530Z,49.08
2023-07-25T21:44:36.060Z,49.21
2023-07-25T21:47:11.244Z,49.19
2023-07-25T21:49:43.796Z,49.09
2023-07-25T21:52:16.477Z,48.99
2023-07-25T21:54:48.995Z,49.62
2023-07-25T21:57:21.532Z,49.58
2023-07-25T21:59:54.051Z,49.40
2023-07-25T22:02:29.269Z,49.40
2023-07-25T22:05:02.187Z,49.52
2023-07-25T22:07:34.805Z,49.41
2023-07-25T22:10:07.812Z,49.36
2023-07-25T22:12:40.479Z,49.30
2023-07-25T22:15:13.098Z,49.04
2023-07-25T22:17:45.607Z,49.15
2023-07-25T22:20:18.233Z,49.25
2023-07-25T22:22:50.717Z,49.44
2023-07-25T22:25:23.306Z,49.85
2023-07-25T22:27:58.306Z,49.77
2023-07-25T22:30:30.810Z,49.32
2023-07-25T22:33:03.392Z,49.49
2023-07-25T22:35:35.973Z,49.94
2023-07-25T22:38:08.413Z,49.93
2023-07-25T22:40:40.990Z,49.86
2023-07-25T22:43:13.488Z,50.06
2023-07-25T22:45:45.964Z,50.24
2023-07-25T22:48:18.780Z,50.14
2023-07-25T22:50:51.706Z,50.41
2023-07-25T22:53:24.191Z,50.44
2023-07-25T22:56:01.601Z,50.65
2023-07-25T22:58:34.118Z,50.74
2023-07-25T23:01:06.717Z,50.57
2023-07-25T23:03:40.759Z,50.48
2023-07-25T23:06:13.434Z,50.49
2023-07-25T23:08:45.986Z,50.13
2023-07-25T23:11:18.589Z,50.22
2023-07-25T23:13:51.125Z,50.00
2023-07-25T23:16:23.657Z,50.14
2023-07-25T23:18:56.177Z,49.74
2023-07-25T23:21:28.727Z,50.15
2023-07-25T23:24:01.261Z,49.88
2023-07-25T23:26:34.085Z,49.69
2023-07-25T23:29:06.834Z,49.89
2023-07-25T23:31:39.337Z,50.18
2023-07-25T23:34:16.521Z,49.93
2023-07-25T23:36:48.996Z,50.05
2023-07-25T23:39:22.068Z,49.74
2023-07-25T23:41:54.642Z,49.95
2023-07-25T23:44:27.132Z,50.00
2023-07-25T23:46:59.829Z,50.35
2023-07-25T23:49:33.910Z,50.34
2023-07-25T23:52:06.734Z,50.17
2023-07-25T23:54:39.314Z,49.69
2023-07-25T23:57:12.111Z,50.00
2023-07-25T23:59:44.649Z,49.93
